NFTF/TBU METAR and TAF weather

Enter ICAO airport designator
Station Type Date Time Source
NFTF METAR 2021/05/15 01:00 UTC NOAA

NFTF 150100Z 09008KT 9999 FEW017 SCT290 27/23 Q1015


Station Type Date Time Source
NFTF Decoded METAR 2021/05/15 01:00 UTC NOAA

Fua'Amotu, Tonga (NFTF) 21-14S 175-09W 41M
May 14, 2021 - 09:00 PM EDT / 2021.05.15 0100 UTC
Wind: from the E (090 degrees) at 9 MPH (8 KT):0
Visibility: greater than 7 mile(s):0
Sky conditions: partly cloudy
Temperature: 80 F (27 C)
Dew Point: 73 F (23 C)
Relative Humidity: 78%
Pressure (altimeter): 29.97 in. Hg (1015 hPa)
ob: NFTF 150100Z 09008KT 9999 FEW017 SCT290 27/23 Q1015
cycle: 1

Station Type Date Time Source
NFTF TAF 2021/05/14 18:13 UTC NOAA

TAF NFTF 141707Z 1418/1518 14007KT 9999 FEW019

Example: see airport list